Pueblo, CO

2:37 AM MST on December 18, 2014 (GMT -0700)
Pueblo Memorial | Change Station
CLOSE
Current Station
Airport
Location: Pueblo,
Elevation: 4721 ft
Nearby Weather Stations

Elev 4721 ft 38.29 °N, 104.50 °W | Updated 44 minutes ago

Partly Cloudy
Partly Cloudy
21 °F
Feels Like 15 °F
N
5
Wind Variable Wind from WNW

Today
High -- | Low -- °F
--% Chance of Precip.
Yesterday
High -- | Low -- °F
Precip. -- in
7:09 AM 4:39 PM
Waning Crescent, 16% visible
Pressure 30.09 in
Visibility 8.0 miles
Clouds Clear
Windchill 15 °F
Dew Point 20 °F
Humidity 96%
Rainfall 0.00 in
Snow Depth Not available.
UV 0 out of 12
Pollen .10 out of 12
Air Quality Not available.
Flu Activity Not available.
METAR KPUB 180853Z AUTO 30004KT 8SM CLR M06/M07 A3001 RMK AO2 SLP188 60000 T10611067 58005

More Conditions Fewer Conditions

Pressure 30.09 in
Visibility 8.0 miles
Clouds Clear
Windchill 15 °F
Dew Point 20 °F
Humidity 96%
Rainfall 0.00 in
Snow Depth Not available.
UV 0 out of 12
Pollen .10 out of 12
Air Quality Not available.
Flu Activity Not available.
METAR KPUB 180853Z AUTO 30004KT 8SM CLR M06/M07 A3001 RMK AO2 SLP188 60000 T10611067 58005

More Conditions Fewer Conditions

10-Day Weather Forecast

Almanac

Astronomy

Dec. 18, 2014 Rise Set
Actual Time
Civil Twilight
Nautical Twilight
Astronomical Twilight
Moon
Length of Visible Light
Length of Day
Tomorrow will be .
, % of the Moon is Illuminated

Today's Extremes

State Highs State Lows

Community

WunderPhotos

Upload Photos

1,778,907 photos uploaded!

WunderBlogs® & News

Nearby

Air Quality

  Air Quality AQ Index Pollutant
Not available.

Snow Depth

Station Depth Elevation

Earthquake Activity

City Distance Mag. Time & Date
Minimum magnitude displayed is 2.5.

Coastal Water Temperatures

Place Temperature

Nearby Weather Stations